La Fayette, New York
Current Conditions -  °F | °C
As of 12:54 PM on Tuesday 21 Oct 2014 (Local Time) from KSYR Reporting Station
Drizzle Drizzle  
Wind Chill: 50°   Ceiling: 2300
Heat Index: 50°   Visibility: 10mi
Dew Point: 47°   Wind: 0mph
Humidity: 90%   Direction: NA
Pressure: 29.87"   Gusts: NA
Location:  42.89°N, 76.1°W
Report Text: KSYR 211654Z 00000KT 10SM -DZ SCT012 BKN023 OVC040 10/09 A2987 RMK RAB22E45DZB45 SLP112 T01010085
Loading
Personal Weather Stations






























Interactive Weather Map
Tropical Storm Tracking
New forecast layout! Learn more

10-Day Weather Forecast

Advertisements
Track Severe Weather on mobile